»·PEaware :: N5205X KOSH-KOSH

N5205X :: KOSH-KOSH

FLIGHT INFORMATION

Flight Status: Arrived
Operator: Privately registered:
United States
More flights under this callsign
Pilot: Martin B. (29991)
Aircraft: CIRRUS SR-22
(SR22)
More flights by this aircraft type
Origin: KOSH Wittman Regl
United States
Destination: KOSH Wittman Regl
United States
More flights between these airports :: More routes between these airports
Route: null
File this flight plan on PilotEdge
Remarks:
Altitude:
(Current/Filed)
null
Speed:
(Current/Filed)
0kts
Departed: 23-Jul-20 10:46 AM
Arrived: 23-Jul-20 11:31 AM
Distance/Time
Traveled:
0nm/0:45
Distance/Time
To Go:
Arrived

Flight Plot

Page will automatically refresh every two minutes.

Flight plan parsing failed; only flown route is shown


Map Options




Map Legend


Flown Route
Filed Route
Departure Airport
Arrival Airport
Navaid (VOR, NDB)
Fix

Horizontal Profiles

Position Reports

Time Latitude Longitude Heading Altitude Ground
Speed
23-Jul-20 10:10 43.990781 -88.572281 75 800ft 0kts
23-Jul-20 10:11 43.990781 -88.572281 75 800ft 0kts
23-Jul-20 10:12 43.990781 -88.572281 75 800ft 0kts
23-Jul-20 10:13 43.990781 -88.572281 75 800ft 0kts
23-Jul-20 10:14 43.990781 -88.572281 75 800ft 0kts
23-Jul-20 10:15 43.990781 -88.572281 75 800ft 0kts
23-Jul-20 10:16 43.990781 -88.572281 75 800ft 0kts
23-Jul-20 10:17 43.990781 -88.572281 75 800ft 0kts
23-Jul-20 10:18 43.990781 -88.572281 75 800ft 0kts
23-Jul-20 10:19 43.990781 -88.572281 75 800ft 0kts
23-Jul-20 10:20 43.990781 -88.572281 75 800ft 0kts
23-Jul-20 10:21 43.990781 -88.572281 75 800ft 0kts
23-Jul-20 10:22 43.990781 -88.572281 75 800ft 0kts
23-Jul-20 10:23 43.990781 -88.572281 75 800ft 0kts
23-Jul-20 10:24 43.990781 -88.572281 75 800ft 0kts
23-Jul-20 10:25 43.990781 -88.572281 75 800ft 0kts
23-Jul-20 10:26 43.990781 -88.572281 75 800ft 0kts
23-Jul-20 10:27 43.990781 -88.572281 75 800ft 0kts
23-Jul-20 10:28 43.990781 -88.572281 75 800ft 0kts
23-Jul-20 10:29 43.990781 -88.572281 75 800ft 0kts
23-Jul-20 10:30 43.990781 -88.572281 75 800ft 0kts
23-Jul-20 10:31 43.990781 -88.572281 75 800ft 0kts
23-Jul-20 10:32 43.990781 -88.572281 75 800ft 0kts
23-Jul-20 10:33 43.990781 -88.572281 75 800ft 0kts
23-Jul-20 10:34 43.990781 -88.572281 75 800ft 0kts
23-Jul-20 10:35 43.990781 -88.572281 75 800ft 0kts
23-Jul-20 10:36 43.990781 -88.572281 75 800ft 0kts
23-Jul-20 10:37 43.990781 -88.572281 75 800ft 0kts
23-Jul-20 10:38 44.763732 -89.671277 350 1280ft 0kts
23-Jul-20 10:39 44.763732 -89.671277 350 1280ft 0kts
23-Jul-20 10:40 44.763733 -89.671277 349 1280ft 0kts
23-Jul-20 10:41 44.763732 -89.671277 350 1280ft 0kts
23-Jul-20 10:42 44.763733 -89.671277 349 1280ft 0kts
23-Jul-20 10:43 44.763732 -89.671277 350 1280ft 0kts
23-Jul-20 10:44 44.763732 -89.671277 350 1280ft 0kts
23-Jul-20 10:45 44.779442 -89.672839 11 1936ft 103kts
23-Jul-20 10:46 44.772821 -89.643120 181 2943ft 134kts
23-Jul-20 10:47 44.734033 -89.638734 159 3502ft 158kts
23-Jul-20 10:48 44.691253 -89.612836 155 3500ft 176kts
23-Jul-20 10:49 44.646497 -89.584933 155 3500ft 181kts
23-Jul-20 10:50 44.600302 -89.556186 155 3499ft 181kts
23-Jul-20 10:51 44.555422 -89.528297 155 3499ft 174kts
23-Jul-20 10:52 44.511144 -89.500869 155 3499ft 174kts
23-Jul-20 10:53 44.467108 -89.473575 155 3499ft 174kts
23-Jul-20 10:54 44.422868 -89.446231 155 3499ft 174kts
23-Jul-20 10:55 44.378694 -89.418990 155 3499ft 174kts
23-Jul-20 10:56 44.334458 -89.391740 155 3499ft 174kts
23-Jul-20 10:57 44.290331 -89.364612 155 3499ft 174kts
23-Jul-20 10:58 44.246153 -89.337468 156 3500ft 174kts
23-Jul-20 10:59 44.201966 -89.310392 156 3500ft 174kts
23-Jul-20 11:00 44.157717 -89.283314 156 3500ft 174kts
23-Jul-20 11:01 44.113502 -89.256357 156 3499ft 174kts
23-Jul-20 11:02 44.069140 -89.229276 156 3500ft 174kts
23-Jul-20 11:03 44.023628 -89.209029 173 3499ft 174kts
23-Jul-20 11:04 43.976263 -89.201399 173 3234ft 156kts
23-Jul-20 11:05 43.937531 -89.195098 173 2621ft 131kts
23-Jul-20 11:06 43.902584 -89.186194 166 2018ft 126kts
23-Jul-20 11:07 43.870549 -89.175315 166 1800ft 112kts
23-Jul-20 11:08 43.840972 -89.159618 150 1800ft 115kts
23-Jul-20 11:09 43.815930 -89.131780 139 1800ft 116kts
23-Jul-20 11:10 43.791428 -89.102483 139 1799ft 116kts
23-Jul-20 11:11 43.766989 -89.073257 139 1800ft 116kts
23-Jul-20 11:12 43.763154 -89.042251 27 1798ft 90kts
23-Jul-20 11:13 43.782279 -89.019079 50 1799ft 92kts
23-Jul-20 11:14 43.797256 -88.991206 54 1799ft 89kts
23-Jul-20 11:15 43.811469 -88.963321 54 1799ft 88kts
23-Jul-20 11:16 43.823352 -88.933843 65 1800ft 88kts
23-Jul-20 11:17 43.833683 -88.902063 65 1800ft 93kts
23-Jul-20 11:18 43.844265 -88.869514 65 1799ft 92kts
23-Jul-20 11:19 43.853446 -88.836185 69 1799ft 92kts
23-Jul-20 11:20 43.864196 -88.803982 56 1800ft 92kts
23-Jul-20 11:21 43.879311 -88.775125 49 1800ft 92kts
23-Jul-20 11:22 43.896350 -88.748576 46 1800ft 92kts
23-Jul-20 11:23 43.914853 -88.723747 42 1800ft 92kts
23-Jul-20 11:24 43.933810 -88.699543 42 1799ft 92kts
23-Jul-20 11:25 43.944825 -88.668571 82 1801ft 94kts
23-Jul-20 11:26 43.947225 -88.630498 87 1801ft 103kts
23-Jul-20 11:27 43.948359 -88.592109 84 1577ft 90kts
23-Jul-20 11:28 43.953698 -88.561468 51 1209ft 76kts
23-Jul-20 11:29 43.972524 -88.556617 4 798ft 48kts
23-Jul-20 11:30 43.981743 -88.556444 1 788ft 28kts
23-Jul-20 11:31 43.985652 -88.557810 232 788ft 6kts
23-Jul-20 11:32 43.983089 -88.558031 212 789ft 4kts
23-Jul-20 11:33 43.982184 -88.558730 180 792ft 3kts
23-Jul-20 11:34 43.982168 -88.558730 179 792ft 0kts
23-Jul-20 11:35 43.982168 -88.558730 179 792ft 0kts
23-Jul-20 11:36 43.982168 -88.558730 179 792ft 0kts
23-Jul-20 11:37 43.982168 -88.558730 179 792ft 0kts
23-Jul-20 11:38 43.982168 -88.558730 179 792ft 0kts
23-Jul-20 11:39 43.982168 -88.558730 179 792ft 0kts
23-Jul-20 11:40 43.982168 -88.558730 179 792ft 0kts
23-Jul-20 11:41 43.982168 -88.558730 179 792ft 0kts
23-Jul-20 11:42 43.982168 -88.558730 179 792ft 0kts
23-Jul-20 11:43 43.982168 -88.558730 179 792ft 0kts

Navigation Log

Ident Type
Flight plan parsing failed, navigation log unavailable